• Join FlightAware (Why Join?)
  • Login
  • US Flag 
05:29PM EST


 

Airport Tracker/Info


-or-


 

Live Flight TrackerFlight Track Log ✈ TRS898 ✈ 14-May-2012 ✈ KGRR - KBWI

Flight Track Log - Related Links

Times and Time Zones

All times are in EDT time to prevent confusion due to time zone crossing. See the TRS898 flight status page for this flight to view local times or setup timezone preferences in your user account.

Time Position Orientation Groundspeed Altitude Reporting Facility
EDT Latitude Longitude Course Direction KTS MPH feet Rate Location/Type
06:19PM 42.8011 -85.5067 122° Southeast 238 274 4,100  Level Chicago Center
06:23PM 42.6117 -85.0892 128° Southeast 331 381 12,400 1,860 Climbing Cleveland Center
06:24PM 42.5453 -84.9744 128° Southeast 360 414 14,300 1,860 Climbing Cleveland Center
06:26PM 42.4728 -84.8483 127° Southeast 380 437 16,600 1,980 Climbing Cleveland Center
06:27PM 42.3928 -84.7025 127° Southeast 391 450 18,700 1,800 Climbing Cleveland Center
06:28PM 42.3297 -84.5914 127° Southeast 404 465 20,200 1,620 Climbing Cleveland Center
06:29PM 42.2592 -84.4664 129° Southeast 417 480 22,000 1,800 Climbing Cleveland Center
06:30PM 42.1819 -84.3383 128° Southeast 427 491 23,800 1,620 Climbing Cleveland Center
06:31PM 42.1050 -84.2050 128° Southeast 444 511 25,300 1,440 Climbing Cleveland Center
06:32PM 42.0278 -84.0719 129° Southeast 444 511 26,700 1,200 Climbing Cleveland Center
06:33PM 41.9464 -83.9392 128° Southeast 457 526 27,800 1,140 Climbing Cleveland Center
06:34PM 41.8669 -83.8011 129° Southeast 462 532 29,000 1,500 Climbing Cleveland Center
06:35PM 41.7850 -83.6661 129° Southeast 462 532 30,900 1,500 Climbing Cleveland Center
06:36PM 41.6992 -83.5228 128° Southeast 456 525 32,100 540 Climbing Cleveland Center
06:37PM 41.6211 -83.3914 128° Southeast 456 525 32,000 -120 Descending Cleveland Center
06:38PM 41.5431 -83.2603 128° Southeast 461 531 31,900  Descending Cleveland Center
06:39PM 41.4747 -83.1439 128° Southeast 456 525 32,000  Climbing Cleveland Center
06:40PM 41.3983 -83.0136 129° Southeast 451 519 32,000  Level Cleveland Center
06:41PM 41.3197 -82.8861 128° Southeast 451 519 32,000  Level Cleveland Center
06:42PM 41.2450 -82.7592 122° Southeast 445 512 32,000  Level Cleveland Center
06:43PM 41.1789 -82.6192 123° Southeast 445 512 32,000  Level Cleveland Center
06:44PM 41.1125 -82.4819 125° Southeast 445 512 32,000 300 Level Cleveland Center
06:45PM 41.0356 -82.3339 123° Southeast 445 512 32,700 480 Climbing Cleveland Center
06:46PM 40.9667 -82.1917 123° Southeast 453 521 33,000 120 Climbing Cleveland Center
06:47PM 40.8978 -82.0528 124° Southeast 453 521 33,000  Level Cleveland Center
06:48PM 40.8286 -81.9167 124° Southeast 453 521 33,000  Level Cleveland Center
06:49PM 40.7592 -81.7783 123° Southeast 453 521 33,000  Level Cleveland Center
06:50PM 40.6897 -81.6372 124° Southeast 453 521 33,000  Level Cleveland Center
06:51PM 40.6181 -81.4994 123° Southeast 453 521 33,000 -300 Level Cleveland Center
06:52PM 40.5481 -81.3592 123° Southeast 448 516 32,500 -960 Descending Cleveland Center
06:53PM 40.4803 -81.2219 124° Southeast 448 516 31,100 -660 Descending Cleveland Center
06:54PM 40.3811 -81.0328 123° Southeast 448 516 31,000 -60 Descending Cleveland Center
06:55PM 40.3128 -80.8961 124° Southeast 448 516 31,000  Level Cleveland Center
06:56PM 40.2275 -80.7325 115° Southeast 448 516 31,000  Level Cleveland Center
06:57PM 40.1736 -80.5831 114° Southeast 448 516 31,000  Level Cleveland Center
06:58PM 40.1211 -80.4283 115° Southeast 448 516 31,000  Level Cleveland Center
06:59PM 40.0667 -80.2764 113° Southeast 459 528 31,000  Level Cleveland Center
07:00PM 40.0142 -80.1114 113° Southeast 459 528 31,000  Level Cleveland Center
07:01PM 39.9633 -79.9575 114° Southeast 454 522 31,000 -360 Level Cleveland Center
07:03PM 39.8597 -79.6569 113° Southeast 453 521 30,000 -720 Descending Washington Center
07:04PM 39.8086 -79.5028 115° Southeast 453 521 29,000 -1,080 Descending Washington Center
07:05PM 39.7531 -79.3486 114° Southeast 458 527 27,900 -1,140 Descending Washington Center
07:06PM 39.7014 -79.1975 112° Southeast 458 527 26,700 -1,500 Descending Washington Center
07:07PM 39.6539 -79.0469 109° East 458 527 25,000 -900 Descending Washington Center
07:08PM 39.6161 -78.9078 105° East 453 521 25,000 -180 Level Washington Center
07:09PM 39.5847 -78.7553 106° East 448 516 24,700 -1,320 Descending Washington Center
07:10PM 39.5511 -78.6033 105° East 448 516 22,400 -2,220 Descending Washington Center
07:11PM 39.5211 -78.4622 106° East 430 495 20,300 -2,280 Descending Washington Center
07:12PM 39.4889 -78.3208 105° East 417 480 17,900 -2,280 Descending Washington Center
07:13PM 39.4589 -78.1800 107° East 407 468 15,800 -1,500 Descending Washington Center
07:14PM 39.4281 -78.0500 106° East 394 453 15,000 -420 Descending Washington Center
07:15PM 39.3994 -77.9228 96° East 381 438 15,000  Level Washington Center
07:16PM 39.3894 -77.7908 79° East 371 427 15,000 -120 Level Washington Center
07:17PM 39.4083 -77.6597 81° East 364 419 14,800 -1,320 Descending Washington Center
07:18PM 39.4253 -77.5261 80° East 364 419 12,500 -1,800 Descending Washington Center
07:19PM 39.4417 -77.4028 79° East 364 419 11,200 -780 Descending Washington Center
07:20PM 39.4578 -77.2931 79° East 337 388 11,000 -780 Descending Washington Center
07:22PM 39.4833 -77.1167 90° East 307 353 9,400 -1,380 Descending Potomac TRACON
07:23PM 39.4833 -77.0167 102° East 295 339 7,600 -1,800 Descending Potomac TRACON
07:24PM 39.4667 -76.9167 102° East 280 322 5,900 -1,740 Descending Potomac TRACON
07:25PM 39.4500 -76.8167 194° South 276 318 4,200 -900 Descending Potomac TRACON
07:26PM 39.4000 -76.8333 201° Southwest 248 285 4,000 -120 Descending Potomac TRACON
07:27PM 39.3333 -76.8667 218° Southwest 246 283 4,000 -540 Level Potomac TRACON
07:28PM 39.2833 -76.9167 180° South 246 283 3,000 -600 Descending Potomac TRACON
07:29PM 39.2333 -76.9167 142° Southeast 172 198 2,800 -480 Descending Potomac TRACON
07:30PM 39.2000 -76.8833 108° East 160 184 2,000 -420 Descending Potomac TRACON
07:31PM 39.1833 -76.8167 90° East 162 186 2,000 -360 Level Potomac TRACON
07:32PM 39.1833 -76.7667 90° East 147 169 1,300 -660 Descending Potomac TRACON
07:33PM 39.1833 -76.7167 90° East 130 150 700 -600 Descending Potomac TRACON